Time;durP1;ratioP1;P1;durP2;ratioP2;P2;SDS_P1;SDS_P2;PMS_P1;PMS_P2;Temp;Humidity;BMP_temperature;BMP_pressure;BME280_temperature;BME280_humidity;BME280_pressure;Samples;Min_cycle;Max_cycle;Signal;HPM_P1;HPM_P2
2023/08/22 00:02:29;;;;;;;0.65;0.40;;;;;;;;;;10390967;28;20572;-77
2023/08/22 00:07:30;;;;;;;0.45;0.45;;;;;;;;;;10414711;28;20214;-77
2023/08/22 00:12:31;;;;;;;1.92;0.60;;;;;;;;;;10411905;28;20229;-77
2023/08/22 00:17:32;;;;;;;1.00;0.60;;;;;;;;;;10396642;28;20305;-77
2023/08/22 00:22:34;;;;;;;0.45;0.43;;;;;;;;;;10388884;28;20214;-78
2023/08/22 00:27:35;;;;;;;0.38;0.38;;;;;;;;;;10394044;28;20219;-77
2023/08/22 00:32:36;;;;;;;0.45;0.43;;;;;;;;;;10416864;28;20214;-77
2023/08/22 00:37:37;;;;;;;1.60;0.47;;;;;;;;;;10373996;28;20223;-78
2023/08/22 00:42:38;;;;;;;0.63;0.40;;;;;;;;;;10350640;28;20774;-77
2023/08/22 00:47:39;;;;;;;1.33;0.52;;;;;;;;;;10369157;28;20216;-77
2023/08/22 00:52:41;;;;;;;1.65;0.57;;;;;;;;;;10364241;28;20696;-77
2023/08/22 00:57:42;;;;;;;0.60;0.60;;;;;;;;;;10348252;28;20247;-77
2023/08/22 01:02:43;;;;;;;0.40;0.40;;;;;;;;;;10370752;28;20226;-77
2023/08/22 01:07:49;;;;;;;1.17;0.50;;;;;;;;;;10370691;28;20377;-77
2023/08/22 01:12:53;;;;;;;0.85;0.63;;;;;;;;;;10367384;28;21035;-78
2023/08/22 01:17:55;;;;;;;2.17;0.40;;;;;;;;;;10319545;28;20828;-78
2023/08/22 01:22:57;;;;;;;0.40;0.32;;;;;;;;;;10302275;28;20239;-77
2023/08/22 01:27:58;;;;;;;0.63;0.50;;;;;;;;;;10308180;28;21995;-77
2023/08/22 01:33:05;;;;;;;0.70;0.70;;;;;;;;;;10294639;28;20729;-77
2023/08/22 01:38:06;;;;;;;0.40;0.40;;;;;;;;;;10299172;28;20724;-77
2023/08/22 01:43:08;;;;;;;0.40;0.40;;;;;;;;;;10310751;28;20311;-78
2023/08/22 01:48:09;;;;;;;0.40;0.40;;;;;;;;;;10322062;28;20235;-77
2023/08/22 01:53:11;;;;;;;0.77;0.77;;;;;;;;;;10288222;28;20244;-78
2023/08/22 01:58:14;;;;;;;0.40;0.40;;;;;;;;;;10334936;28;20211;-78
2023/08/22 02:03:15;;;;;;;0.68;0.68;;;;;;;;;;10355828;28;20234;-78
2023/08/22 02:08:16;;;;;;;1.60;0.50;;;;;;;;;;10343225;28;20307;-78
2023/08/22 02:13:17;;;;;;;0.70;0.50;;;;;;;;;;10336932;28;20318;-78
2023/08/22 02:18:18;;;;;;;0.85;0.50;;;;;;;;;;10345086;28;20216;-78
2023/08/22 02:23:19;;;;;;;0.43;0.43;;;;;;;;;;10380390;28;20377;-78
2023/08/22 02:28:20;;;;;;;0.60;0.60;;;;;;;;;;10373122;28;20270;-78
2023/08/22 02:33:22;;;;;;;1.17;0.70;;;;;;;;;;10373034;28;20290;-77
2023/08/22 02:38:23;;;;;;;0.60;0.60;;;;;;;;;;10373540;28;20216;-78
2023/08/22 02:43:24;;;;;;;1.10;0.88;;;;;;;;;;10371202;28;20299;-78
2023/08/22 02:48:25;;;;;;;0.85;0.60;;;;;;;;;;10357745;28;20286;-77
2023/08/22 02:53:26;;;;;;;0.60;0.47;;;;;;;;;;10365981;28;20832;-77
2023/08/22 02:58:27;;;;;;;0.50;0.50;;;;;;;;;;10359533;28;20231;-77
2023/08/22 03:03:29;;;;;;;1.02;0.65;;;;;;;;;;10361337;28;20212;-78
2023/08/22 03:08:32;;;;;;;2.67;0.70;;;;;;;;;;10381067;28;20278;-77
2023/08/22 03:13:33;;;;;;;0.55;0.55;;;;;;;;;;10374601;28;20238;-77
2023/08/22 03:18:34;;;;;;;2.03;0.57;;;;;;;;;;10398376;28;20243;-77
2023/08/22 03:23:36;;;;;;;0.93;0.43;;;;;;;;;;10390878;28;20214;-77
2023/08/22 03:28:37;;;;;;;0.60;0.60;;;;;;;;;;10392922;28;20225;-77
2023/08/22 03:33:39;;;;;;;0.82;0.80;;;;;;;;;;10378683;28;20222;-77
2023/08/22 03:38:43;;;;;;;1.23;0.60;;;;;;;;;;10376870;28;20219;-77
2023/08/22 03:43:44;;;;;;;1.55;0.63;;;;;;;;;;10406650;28;20313;-77
2023/08/22 03:48:46;;;;;;;0.65;0.65;;;;;;;;;;10383365;28;20720;-77
2023/08/22 03:53:48;;;;;;;1.23;0.60;;;;;;;;;;10375840;28;20276;-77
2023/08/22 03:58:50;;;;;;;0.47;0.47;;;;;;;;;;10369312;28;20318;-77
2023/08/22 04:03:51;;;;;;;0.75;0.73;;;;;;;;;;10402144;28;20215;-77
2023/08/22 04:08:55;;;;;;;0.55;0.55;;;;;;;;;;10389836;28;20246;-78
2023/08/22 04:13:57;;;;;;;0.57;0.57;;;;;;;;;;10396776;28;20741;-77
2023/08/22 04:18:58;;;;;;;2.47;0.50;;;;;;;;;;10380471;28;20223;-77
2023/08/22 04:24:00;;;;;;;1.30;0.60;;;;;;;;;;10403259;28;20880;-77
2023/08/22 04:29:01;;;;;;;0.50;0.50;;;;;;;;;;10407033;28;20852;-77
2023/08/22 04:34:03;;;;;;;0.43;0.43;;;;;;;;;;10355164;28;20357;-77
2023/08/22 04:39:07;;;;;;;0.70;0.70;;;;;;;;;;10371824;28;20780;-77
2023/08/22 04:44:08;;;;;;;1.48;0.65;;;;;;;;;;10359898;28;20216;-77
2023/08/22 04:49:09;;;;;;;0.55;0.55;;;;;;;;;;10394676;28;20219;-77
2023/08/22 04:54:11;;;;;;;0.68;0.68;;;;;;;;;;10361903;28;20214;-78
2023/08/22 04:59:12;;;;;;;0.73;0.73;;;;;;;;;;10388375;28;20230;-77
2023/08/22 05:04:14;;;;;;;0.50;0.50;;;;;;;;;;10424795;28;20223;-76
2023/08/22 05:09:16;;;;;;;0.80;0.60;;;;;;;;;;10413181;28;20717;-76
2023/08/22 05:14:17;;;;;;;0.65;0.65;;;;;;;;;;10409180;28;20281;-78
2023/08/22 05:19:19;;;;;;;3.20;0.63;;;;;;;;;;10394469;28;20277;-78
2023/08/22 05:24:21;;;;;;;1.20;0.70;;;;;;;;;;10421805;28;20207;-79
2023/08/22 05:29:22;;;;;;;0.68;0.50;;;;;;;;;;10409867;28;20221;-79
2023/08/22 05:34:23;;;;;;;0.90;0.70;;;;;;;;;;10418969;28;20833;-77
2023/08/22 05:39:25;;;;;;;2.30;0.60;;;;;;;;;;10405236;28;20245;-79
2023/08/22 05:44:29;;;;;;;1.08;0.60;;;;;;;;;;10399193;28;20222;-79
2023/08/22 05:49:30;;;;;;;0.75;0.60;;;;;;;;;;10432897;28;20828;-78
2023/08/22 05:54:31;;;;;;;1.55;0.82;;;;;;;;;;10425981;28;20221;-78
2023/08/22 05:59:34;;;;;;;2.35;0.75;;;;;;;;;;10407334;28;20696;-79
2023/08/22 06:04:36;;;;;;;1.23;0.60;;;;;;;;;;10428751;28;20211;-79
2023/08/22 06:09:37;;;;;;;0.85;0.85;;;;;;;;;;10411505;28;20319;-78
2023/08/22 06:14:38;;;;;;;0.50;0.50;;;;;;;;;;10427577;28;20251;-78
2023/08/22 06:19:39;;;;;;;0.80;0.65;;;;;;;;;;10416693;28;20642;-79
2023/08/22 06:24:41;;;;;;;0.65;0.65;;;;;;;;;;10436139;28;20222;-79
2023/08/22 06:29:42;;;;;;;2.70;0.80;;;;;;;;;;10415897;28;20210;-82
2023/08/22 06:34:43;;;;;;;1.52;1.00;;;;;;;;;;10422284;28;20214;-78
2023/08/22 06:39:44;;;;;;;0.80;0.80;;;;;;;;;;10406893;28;20729;-78
2023/08/22 06:44:45;;;;;;;0.75;0.75;;;;;;;;;;10407513;28;20207;-79
2023/08/22 06:49:46;;;;;;;1.65;0.93;;;;;;;;;;10410615;28;20208;-79
2023/08/22 06:54:47;;;;;;;1.80;0.70;;;;;;;;;;10406175;28;20606;-77
2023/08/22 06:59:48;;;;;;;1.73;0.80;;;;;;;;;;10409163;28;20557;-78
2023/08/22 07:04:49;;;;;;;1.00;0.80;;;;;;;;;;10419108;28;20195;-78
2023/08/22 07:09:50;;;;;;;1.75;0.75;;;;;;;;;;10423326;28;20219;-78
2023/08/22 07:14:52;;;;;;;1.90;0.85;;;;;;;;;;10419194;28;20628;-80
2023/08/22 07:19:53;;;;;;;0.80;0.80;;;;;;;;;;10405365;28;20269;-77
2023/08/22 07:24:54;;;;;;;2.08;0.50;;;;;;;;;;10434511;28;20715;-79
2023/08/22 07:29:55;;;;;;;1.95;0.80;;;;;;;;;;10402490;28;20236;-79
2023/08/22 07:34:57;;;;;;;0.82;0.70;;;;;;;;;;10421017;28;20258;-78
2023/08/22 07:39:59;;;;;;;1.23;0.70;;;;;;;;;;10400615;28;20229;-79
2023/08/22 07:45:00;;;;;;;1.38;0.77;;;;;;;;;;10399955;28;20237;-80
2023/08/22 07:50:01;;;;;;;1.08;0.80;;;;;;;;;;10403924;28;20226;-81
2023/08/22 07:55:02;;;;;;;2.03;1.10;;;;;;;;;;10412588;28;20223;-78
2023/08/22 08:00:11;;;;;;;3.22;1.00;;;;;;;;;;10419905;28;20242;-79
2023/08/22 08:05:15;;;;;;;0.50;0.50;;;;;;;;;;10422562;28;20207;-80
2023/08/22 08:10:16;;;;;;;2.05;0.80;;;;;;;;;;10421638;28;20195;-78
2023/08/22 08:15:17;;;;;;;1.38;0.82;;;;;;;;;;10414779;28;20288;-79
2023/08/22 08:20:18;;;;;;;2.15;0.55;;;;;;;;;;10417513;28;20219;-79
2023/08/22 08:25:19;;;;;;;2.70;0.80;;;;;;;;;;10428033;28;20233;-79
2023/08/22 08:30:21;;;;;;;0.80;0.80;;;;;;;;;;10420021;28;20221;-80
2023/08/22 08:35:22;;;;;;;3.60;0.68;;;;;;;;;;10401807;28;20210;-80
2023/08/22 08:40:23;;;;;;;1.35;0.70;;;;;;;;;;10409660;28;20252;-78
2023/08/22 08:45:24;;;;;;;0.52;0.52;;;;;;;;;;10398950;28;20290;-79
2023/08/22 08:50:26;;;;;;;1.98;0.90;;;;;;;;;;10421686;28;20305;-78
2023/08/22 08:55:27;;;;;;;2.92;0.90;;;;;;;;;;10399847;28;20301;-80
2023/08/22 09:00:30;;;;;;;1.17;0.73;;;;;;;;;;10396565;28;20226;-79
2023/08/22 09:05:31;;;;;;;1.50;0.80;;;;;;;;;;10422699;28;21549;-80
2023/08/22 09:10:34;;;;;;;2.03;0.75;;;;;;;;;;10419203;28;20222;-81
2023/08/22 09:15:35;;;;;;;1.70;0.80;;;;;;;;;;10401093;28;20762;-81
2023/08/22 09:20:36;;;;;;;1.15;0.70;;;;;;;;;;10418157;28;20215;-80
2023/08/22 09:25:39;;;;;;;0.57;0.57;;;;;;;;;;10412805;28;20344;-80
2023/08/22 09:30:47;;;;;;;0.50;0.50;;;;;;;;;;10410019;28;21104;-79
2023/08/22 09:35:48;;;;;;;0.50;0.50;;;;;;;;;;10422078;28;20565;-79
2023/08/22 09:40:55;;;;;;;2.75;0.63;;;;;;;;;;10419730;28;20218;-77
2023/08/22 09:45:56;;;;;;;2.67;0.52;;;;;;;;;;10410682;28;20227;-80
2023/08/22 09:50:59;;;;;;;1.10;0.50;;;;;;;;;;10421889;28;20936;-78
2023/08/22 09:56:01;;;;;;;2.30;0.70;;;;;;;;;;10427798;28;20238;-80
2023/08/22 10:01:02;;;;;;;1.75;0.65;;;;;;;;;;10432251;28;20607;-79
2023/08/22 10:06:04;;;;;;;0.40;0.40;;;;;;;;;;10420080;28;21241;-79
2023/08/22 10:11:06;;;;;;;0.50;0.50;;;;;;;;;;10407224;28;20249;-80
2023/08/22 10:16:07;;;;;;;2.30;0.43;;;;;;;;;;10420832;28;20227;-78
2023/08/22 10:21:08;;;;;;;2.60;0.60;;;;;;;;;;10422489;28;20223;-80
2023/08/22 10:26:10;;;;;;;1.42;0.60;;;;;;;;;;10425677;28;20215;-82
2023/08/22 10:31:11;;;;;;;0.52;0.52;;;;;;;;;;10405860;28;20754;-79
2023/08/22 10:36:17;;;;;;;1.27;0.73;;;;;;;;;;10420473;28;20219;-80
2023/08/22 10:41:21;;;;;;;0.60;0.60;;;;;;;;;;10423216;28;20230;-81
2023/08/22 10:46:42;;;;;;;0.50;0.40;;;;;;;;;;10401581;28;20237;-79
2023/08/22 10:51:43;;;;;;;0.90;0.50;;;;;;;;;;10421534;28;20213;-80
2023/08/22 10:56:44;;;;;;;0.50;0.50;;;;;;;;;;10403451;28;20206;-79
2023/08/22 11:01:47;;;;;;;2.72;0.40;;;;;;;;;;10427117;28;20301;-80
2023/08/22 11:06:49;;;;;;;0.88;0.63;;;;;;;;;;10430532;28;20223;-79
2023/08/22 11:11:51;;;;;;;0.52;0.52;;;;;;;;;;10420337;28;20207;-80
2023/08/22 11:16:52;;;;;;;1.85;0.68;;;;;;;;;;10408209;28;20218;-81
2023/08/22 11:21:53;;;;;;;1.45;0.60;;;;;;;;;;10409240;28;20707;-82
2023/08/22 11:26:55;;;;;;;3.63;0.60;;;;;;;;;;10401321;28;20249;-80
2023/08/22 11:31:56;;;;;;;1.35;0.60;;;;;;;;;;10409697;28;20229;-81
2023/08/22 11:36:57;;;;;;;0.65;0.50;;;;;;;;;;10423981;28;20712;-80
2023/08/22 11:41:59;;;;;;;0.73;0.50;;;;;;;;;;10405061;28;20231;-81
2023/08/22 11:47:00;;;;;;;0.60;0.57;;;;;;;;;;10420416;28;20272;-80
2023/08/22 11:52:20;;;;;;;0.70;0.60;;;;;;;;;;10408198;28;20215;-81
2023/08/22 11:57:22;;;;;;;0.75;0.50;;;;;;;;;;10402204;28;20225;-80
2023/08/22 12:02:23;;;;;;;1.42;0.50;;;;;;;;;;10423492;28;20300;-80
2023/08/22 12:07:24;;;;;;;0.47;0.47;;;;;;;;;;10410373;28;20222;-80
2023/08/22 12:12:25;;;;;;;1.10;0.55;;;;;;;;;;10422399;28;20548;-80
2023/08/22 12:17:26;;;;;;;0.60;0.60;;;;;;;;;;10408865;28;20365;-79
2023/08/22 12:22:27;;;;;;;1.23;0.60;;;;;;;;;;10401933;28;20297;-80
2023/08/22 12:27:28;;;;;;;1.75;0.52;;;;;;;;;;10398657;28;20226;-80
2023/08/22 12:32:29;;;;;;;0.55;0.50;;;;;;;;;;10425660;28;20242;-80
2023/08/22 12:37:30;;;;;;;0.55;0.55;;;;;;;;;;10416954;28;21048;-80
2023/08/22 12:42:31;;;;;;;1.35;0.50;;;;;;;;;;10415743;28;20229;-80
2023/08/22 12:47:32;;;;;;;0.45;0.45;;;;;;;;;;10425723;28;20218;-81
2023/08/22 12:52:34;;;;;;;1.30;0.70;;;;;;;;;;10420491;28;20259;-80
2023/08/22 12:57:37;;;;;;;1.45;0.50;;;;;;;;;;10401293;28;20218;-80
2023/08/22 13:02:39;;;;;;;0.65;0.55;;;;;;;;;;10408145;28;20868;-80
2023/08/22 13:07:40;;;;;;;0.65;0.65;;;;;;;;;;10419532;28;20222;-80
2023/08/22 13:12:41;;;;;;;1.73;0.50;;;;;;;;;;10415060;28;20219;-81
2023/08/22 13:17:42;;;;;;;1.30;0.63;;;;;;;;;;10394129;28;20668;-80
2023/08/22 13:22:43;;;;;;;1.25;0.50;;;;;;;;;;10403248;28;21400;-80
2023/08/22 13:27:44;;;;;;;1.17;0.70;;;;;;;;;;10398090;28;20223;-80
2023/08/22 13:32:45;;;;;;;0.60;0.60;;;;;;;;;;10418359;28;20582;-80
2023/08/22 13:37:47;;;;;;;0.60;0.60;;;;;;;;;;10401638;28;20237;-80
2023/08/22 13:42:48;;;;;;;0.82;0.82;;;;;;;;;;10415604;28;20673;-80
2023/08/22 13:47:54;;;;;;;0.70;0.70;;;;;;;;;;10420398;28;20214;-80
2023/08/22 13:52:55;;;;;;;0.60;0.60;;;;;;;;;;10403400;28;20724;-79
2023/08/22 13:57:56;;;;;;;0.80;0.80;;;;;;;;;;10408335;28;20284;-80
2023/08/22 14:02:57;;;;;;;0.75;0.70;;;;;;;;;;10401697;28;20317;-80
2023/08/22 14:07:58;;;;;;;1.02;0.47;;;;;;;;;;10400522;28;20261;-79
2023/08/22 14:13:00;;;;;;;2.95;0.70;;;;;;;;;;10399497;28;20218;-78
2023/08/22 14:18:01;;;;;;;2.22;0.80;;;;;;;;;;10405832;28;20972;-79
2023/08/22 14:23:03;;;;;;;0.90;0.90;;;;;;;;;;10425295;28;20230;-80
2023/08/22 14:28:04;;;;;;;0.70;0.65;;;;;;;;;;10423078;28;20223;-77
2023/08/22 14:33:06;;;;;;;2.90;0.70;;;;;;;;;;10422771;28;20225;-79
2023/08/22 14:38:07;;;;;;;1.55;0.50;;;;;;;;;;10417033;28;20291;-79
2023/08/22 14:43:08;;;;;;;0.57;0.57;;;;;;;;;;10399605;28;20231;-77
2023/08/22 14:48:09;;;;;;;0.73;0.70;;;;;;;;;;10427180;28;20225;-78
2023/08/22 14:53:15;;;;;;;1.90;0.70;;;;;;;;;;10419379;28;20221;-79
2023/08/22 14:58:17;;;;;;;0.95;0.60;;;;;;;;;;10455201;28;20226;-80
2023/08/22 15:03:19;;;;;;;1.08;0.98;;;;;;;;;;10432355;28;20731;-80
2023/08/22 15:08:20;;;;;;;0.70;0.70;;;;;;;;;;10421841;28;20215;-80
2023/08/22 15:13:22;;;;;;;1.20;0.60;;;;;;;;;;10397402;28;20222;-81
2023/08/22 15:18:24;;;;;;;3.50;0.50;;;;;;;;;;10399165;28;20235;-81
2023/08/22 15:23:25;;;;;;;0.40;0.40;;;;;;;;;;10387760;28;20259;-82
2023/08/22 15:28:26;;;;;;;1.10;0.80;;;;;;;;;;10405364;28;20223;-81
2023/08/22 15:33:28;;;;;;;0.85;0.55;;;;;;;;;;10423978;28;20212;-81
2023/08/22 15:38:33;;;;;;;0.63;0.63;;;;;;;;;;10395652;28;20221;-79
2023/08/22 15:43:34;;;;;;;1.00;0.90;;;;;;;;;;10398448;28;20229;-80
2023/08/22 15:48:35;;;;;;;0.70;0.70;;;;;;;;;;10412718;28;20708;-79
2023/08/22 15:53:36;;;;;;;1.33;0.75;;;;;;;;;;10408685;28;20206;-79
2023/08/22 15:58:38;;;;;;;0.47;0.47;;;;;;;;;;10415824;28;20310;-79
2023/08/22 16:03:39;;;;;;;1.58;0.60;;;;;;;;;;10402718;28;20317;-79
2023/08/22 16:08:40;;;;;;;0.50;0.50;;;;;;;;;;10397392;28;20227;-79
2023/08/22 16:13:41;;;;;;;1.58;0.82;;;;;;;;;;10416984;28;20805;-81
2023/08/22 16:18:42;;;;;;;1.60;0.70;;;;;;;;;;10397513;28;20244;-80
2023/08/22 16:23:43;;;;;;;1.15;0.90;;;;;;;;;;10394416;28;20202;-77
2023/08/22 16:28:44;;;;;;;2.75;0.95;;;;;;;;;;10408615;28;20268;-78
2023/08/22 16:33:45;;;;;;;0.98;0.98;;;;;;;;;;10406686;28;20766;-78
2023/08/22 16:38:47;;;;;;;0.77;0.77;;;;;;;;;;10398777;28;20218;-79
2023/08/22 16:43:49;;;;;;;2.05;1.02;;;;;;;;;;10394616;28;20299;-80
2023/08/22 16:48:50;;;;;;;1.58;0.80;;;;;;;;;;10417650;28;20210;-80
2023/08/22 16:53:51;;;;;;;0.75;0.60;;;;;;;;;;10425441;28;20641;-79
2023/08/22 16:58:52;;;;;;;0.70;0.70;;;;;;;;;;10418434;28;20519;-79
2023/08/22 17:03:53;;;;;;;0.60;0.60;;;;;;;;;;10423740;28;20219;-80
2023/08/22 17:08:56;;;;;;;1.85;0.60;;;;;;;;;;10408155;28;20232;-79
2023/08/22 17:13:57;;;;;;;1.23;0.70;;;;;;;;;;10416435;28;20294;-79
2023/08/22 17:18:58;;;;;;;0.63;0.60;;;;;;;;;;10420247;28;20245;-79
2023/08/22 17:24:00;;;;;;;1.42;0.68;;;;;;;;;;10393381;28;20217;-80
2023/08/22 17:29:01;;;;;;;0.57;0.57;;;;;;;;;;10421614;28;20217;-79
2023/08/22 17:34:02;;;;;;;0.40;0.40;;;;;;;;;;10424111;28;20235;-80
2023/08/22 17:39:03;;;;;;;1.27;0.60;;;;;;;;;;10424867;28;20210;-78
2023/08/22 17:44:04;;;;;;;0.50;0.50;;;;;;;;;;10423734;28;20673;-79
2023/08/22 17:49:05;;;;;;;0.60;0.60;;;;;;;;;;10423578;28;20611;-79
2023/08/22 17:54:07;;;;;;;3.83;0.85;;;;;;;;;;10409892;28;20223;-77
2023/08/22 17:59:08;;;;;;;0.40;0.40;;;;;;;;;;10408510;28;20223;-79
2023/08/22 18:04:09;;;;;;;0.50;0.50;;;;;;;;;;10433896;28;20366;-78
2023/08/22 18:09:11;;;;;;;0.40;0.40;;;;;;;;;;10408369;28;20224;-80
2023/08/22 18:14:12;;;;;;;1.40;0.43;;;;;;;;;;10413483;28;20285;-79
2023/08/22 18:19:13;;;;;;;2.25;0.73;;;;;;;;;;10428370;28;21042;-79
2023/08/22 18:24:15;;;;;;;0.68;0.60;;;;;;;;;;10425405;28;21211;-79
2023/08/22 18:29:16;;;;;;;2.95;0.70;;;;;;;;;;10406731;28;20233;-79
2023/08/22 18:34:17;;;;;;;0.95;0.60;;;;;;;;;;10422752;28;20229;-78
2023/08/22 18:39:18;;;;;;;0.77;0.50;;;;;;;;;;10419580;28;20309;-78
2023/08/22 18:44:19;;;;;;;0.50;0.50;;;;;;;;;;10419628;28;20207;-78
2023/08/22 18:49:20;;;;;;;0.80;0.70;;;;;;;;;;10410761;28;20708;-79
2023/08/22 18:54:22;;;;;;;1.30;0.60;;;;;;;;;;10389639;28;20222;-78
2023/08/22 18:59:23;;;;;;;0.43;0.43;;;;;;;;;;10406891;28;20226;-77
2023/08/22 19:04:24;;;;;;;5.30;0.60;;;;;;;;;;10394475;28;20218;-77
2023/08/22 19:09:25;;;;;;;0.70;0.50;;;;;;;;;;10409693;28;20234;-78
2023/08/22 19:14:26;;;;;;;1.95;0.52;;;;;;;;;;10408634;28;20234;-78
2023/08/22 19:19:27;;;;;;;0.73;0.63;;;;;;;;;;10409043;28;20237;-78
2023/08/22 19:24:28;;;;;;;2.08;0.60;;;;;;;;;;10407269;28;20712;-77
2023/08/22 19:29:31;;;;;;;0.65;0.65;;;;;;;;;;10418106;28;20221;-78
2023/08/22 19:34:32;;;;;;;0.60;0.60;;;;;;;;;;10424116;28;20276;-78
2023/08/22 19:39:33;;;;;;;0.60;0.60;;;;;;;;;;10407695;28;20225;-78
2023/08/22 19:44:35;;;;;;;0.88;0.50;;;;;;;;;;10418709;28;20203;-78
2023/08/22 19:49:36;;;;;;;1.58;0.60;;;;;;;;;;10400386;28;20283;-78
2023/08/22 19:54:37;;;;;;;1.50;0.73;;;;;;;;;;10407660;28;20238;-78
2023/08/22 19:59:38;;;;;;;4.30;0.60;;;;;;;;;;10417922;28;20300;-78
2023/08/22 20:04:39;;;;;;;0.40;0.40;;;;;;;;;;10421469;28;20215;-78
2023/08/22 20:09:40;;;;;;;2.65;0.70;;;;;;;;;;10400937;28;20214;-78
2023/08/22 20:14:41;;;;;;;0.70;0.70;;;;;;;;;;10415511;28;20474;-78
2023/08/22 20:19:42;;;;;;;0.98;0.55;;;;;;;;;;10401721;28;20219;-78
2023/08/22 20:24:43;;;;;;;6.43;1.00;;;;;;;;;;10412101;28;20218;-77
2023/08/22 20:29:44;;;;;;;3.40;0.73;;;;;;;;;;10397952;28;20287;-78
2023/08/22 20:34:47;;;;;;;0.40;0.40;;;;;;;;;;10393598;28;20218;-78
2023/08/22 20:39:49;;;;;;;0.65;0.63;;;;;;;;;;10391869;28;20228;-78
2023/08/22 20:44:50;;;;;;;4.32;0.80;;;;;;;;;;10386864;28;20261;-78
2023/08/22 20:49:51;;;;;;;2.35;0.52;;;;;;;;;;10399863;28;20303;-77
2023/08/22 20:54:52;;;;;;;2.95;0.70;;;;;;;;;;10406224;28;20218;-77
2023/08/22 20:59:53;;;;;;;4.32;0.90;;;;;;;;;;10404076;28;20231;-77
2023/08/22 21:04:55;;;;;;;2.35;0.80;;;;;;;;;;10396145;28;20327;-76
2023/08/22 21:09:56;;;;;;;0.50;0.50;;;;;;;;;;10394276;28;20803;-76
2023/08/22 21:14:57;;;;;;;0.50;0.50;;;;;;;;;;10393692;28;20705;-77
2023/08/22 21:19:58;;;;;;;0.50;0.50;;;;;;;;;;10402315;28;20653;-76
2023/08/22 21:25:00;;;;;;;3.92;0.70;;;;;;;;;;10411655;28;20221;-76
2023/08/22 21:30:01;;;;;;;0.60;0.60;;;;;;;;;;10436872;28;20214;-77
2023/08/22 21:35:02;;;;;;;0.65;0.57;;;;;;;;;;10423518;28;20219;-76
2023/08/22 21:40:03;;;;;;;0.40;0.40;;;;;;;;;;10418971;28;20207;-77
2023/08/22 21:45:14;;;;;;;1.05;0.50;;;;;;;;;;10417592;28;20207;-77
2023/08/22 21:50:15;;;;;;;0.65;0.65;;;;;;;;;;10430383;28;20207;-77
2023/08/22 21:55:16;;;;;;;0.60;0.60;;;;;;;;;;10414977;28;20772;-77
2023/08/22 22:00:17;;;;;;;0.80;0.80;;;;;;;;;;10428931;28;20234;-77
2023/08/22 22:05:18;;;;;;;0.50;0.50;;;;;;;;;;10414814;28;20198;-78
2023/08/22 22:10:19;;;;;;;1.05;0.50;;;;;;;;;;10432106;28;20803;-76
2023/08/22 22:15:20;;;;;;;3.50;0.70;;;;;;;;;;10414150;28;20771;-77
2023/08/22 22:20:21;;;;;;;4.03;0.82;;;;;;;;;;10445578;28;20234;-76
2023/08/22 22:25:23;;;;;;;0.50;0.50;;;;;;;;;;10423674;28;20207;-77
2023/08/22 22:30:24;;;;;;;0.80;0.70;;;;;;;;;;10432308;28;20703;-78
2023/08/22 22:35:25;;;;;;;0.60;0.60;;;;;;;;;;10415847;28;20210;-78
2023/08/22 22:40:27;;;;;;;0.90;0.90;;;;;;;;;;10423087;28;21368;-76
2023/08/22 22:45:29;;;;;;;0.43;0.43;;;;;;;;;;10397863;28;20360;-77
2023/08/22 22:50:30;;;;;;;0.75;0.65;;;;;;;;;;10444326;28;20959;-77
2023/08/22 22:55:31;;;;;;;1.17;0.73;;;;;;;;;;10408569;28;20223;-76
2023/08/22 23:00:32;;;;;;;0.88;0.43;;;;;;;;;;10422797;28;21060;-77
2023/08/22 23:05:33;;;;;;;0.63;0.63;;;;;;;;;;10422334;28;20227;-75
2023/08/22 23:10:34;;;;;;;0.70;0.70;;;;;;;;;;10418383;28;20211;-77
2023/08/22 23:15:35;;;;;;;0.60;0.60;;;;;;;;;;10395508;28;20219;-76
2023/08/22 23:20:36;;;;;;;2.95;0.60;;;;;;;;;;10423098;28;20227;-77
2023/08/22 23:25:37;;;;;;;0.60;0.60;;;;;;;;;;10399834;28;20222;-77
2023/08/22 23:30:38;;;;;;;1.27;0.60;;;;;;;;;;10419199;28;20254;-77
2023/08/22 23:35:40;;;;;;;0.55;0.55;;;;;;;;;;10409838;28;20215;-78
2023/08/22 23:40:41;;;;;;;1.52;0.70;;;;;;;;;;10420012;28;20255;-78
2023/08/22 23:45:42;;;;;;;0.80;0.80;;;;;;;;;;10405596;28;20217;-78
2023/08/22 23:50:43;;;;;;;0.70;0.70;;;;;;;;;;10408329;28;20296;-78
2023/08/22 23:55:44;;;;;;;1.95;0.73;;;;;;;;;;10400588;28;20223;-78
